createdAt,value
2022-11-14T00:01:26.568Z,6.13
2022-11-14T00:03:55.888Z,6.13
2022-11-14T00:06:23.705Z,6.15
2022-11-14T00:08:51.471Z,6.10
2022-11-14T00:11:19.310Z,6.15
2022-11-14T00:13:47.515Z,6.17
2022-11-14T00:16:15.714Z,6.23
2022-11-14T00:18:43.545Z,6.22
2022-11-14T00:21:12.946Z,6.25
2022-11-14T00:23:40.850Z,6.27
2022-11-14T00:26:08.832Z,6.30
2022-11-14T00:28:37.060Z,6.29
2022-11-14T00:31:04.878Z,6.26
2022-11-14T00:33:33.072Z,6.32
2022-11-14T00:36:01.411Z,6.31
2022-11-14T00:38:30.850Z,6.33
2022-11-14T00:40:59.155Z,6.30
2022-11-14T00:43:27.075Z,6.36
2022-11-14T00:45:54.986Z,6.38
2022-11-14T00:48:22.924Z,6.37
2022-11-14T00:50:51.129Z,6.31
2022-11-14T00:53:19.007Z,6.42
2022-11-14T00:55:49.227Z,6.42
2022-11-14T00:58:17.174Z,6.37
2022-11-14T01:00:45.086Z,6.43
2022-11-14T01:03:13.456Z,6.42
2022-11-14T01:05:45.380Z,6.39
2022-11-14T01:08:20.231Z,6.39
2022-11-14T01:10:51.265Z,6.41
2022-11-14T01:13:20.014Z,6.40
2022-11-14T01:15:49.379Z,6.39
2022-11-14T01:18:18.848Z,6.39
2022-11-14T01:20:48.590Z,6.38
2022-11-14T01:23:17.972Z,6.36
2022-11-14T01:25:46.491Z,6.28
2022-11-14T01:28:17.411Z,6.24
2022-11-14T01:30:45.987Z,6.24
2022-11-14T01:33:13.861Z,6.23
2022-11-14T01:35:41.775Z,6.24
2022-11-14T01:38:14.482Z,6.24
2022-11-14T01:40:43.869Z,6.17
2022-11-14T01:43:33.062Z,6.18
2022-11-14T01:46:03.340Z,6.21
2022-11-14T01:48:37.304Z,6.19
2022-11-14T01:51:14.031Z,6.19
2022-11-14T01:53:42.482Z,6.23
2022-11-14T01:56:12.586Z,6.22
2022-11-14T01:58:46.222Z,6.20
2022-11-14T02:01:14.596Z,6.16
2022-11-14T02:03:45.234Z,6.16
2022-11-14T02:06:16.224Z,6.10
2022-11-14T02:08:44.601Z,6.11
2022-11-14T02:11:12.954Z,6.11
2022-11-14T02:13:42.176Z,6.10
2022-11-14T02:16:10.136Z,6.08
2022-11-14T02:18:37.989Z,6.08
2022-11-14T02:21:07.953Z,6.08
2022-11-14T02:23:44.727Z,6.10
2022-11-14T02:26:12.668Z,6.11
2022-11-14T02:28:40.461Z,6.10
2022-11-14T02:31:08.370Z,6.08
2022-11-14T02:33:36.313Z,6.11
2022-11-14T02:36:04.775Z,6.15
2022-11-14T02:38:36.473Z,6.14
2022-11-14T02:41:04.640Z,6.12
2022-11-14T02:43:32.636Z,6.12
2022-11-14T02:46:05.397Z,6.08
2022-11-14T02:48:33.929Z,6.10
2022-11-14T02:51:02.156Z,6.10
2022-11-14T02:53:30.073Z,6.08
2022-11-14T02:55:59.447Z,6.08
2022-11-14T02:58:33.232Z,6.03
2022-11-14T03:01:19.604Z,6.04
2022-11-14T03:03:48.468Z,6.09
2022-11-14T03:06:16.804Z,6.09
2022-11-14T03:08:44.595Z,6.11
2022-11-14T03:11:14.066Z,6.08
2022-11-14T03:13:41.976Z,6.04
2022-11-14T03:16:12.053Z,6.11
2022-11-14T03:18:40.187Z,6.09
2022-11-14T03:21:16.551Z,6.12
2022-11-14T03:23:44.799Z,6.09
2022-11-14T03:26:18.076Z,6.09
2022-11-14T03:28:46.045Z,6.13
2022-11-14T03:31:15.657Z,6.06
2022-11-14T03:33:43.589Z,6.10
2022-11-14T03:36:11.481Z,6.04
2022-11-14T03:38:39.411Z,6.12
2022-11-14T03:41:07.598Z,6.18
2022-11-14T03:43:36.794Z,6.16
2022-11-14T03:46:16.580Z,6.15
2022-11-14T03:48:44.527Z,6.13
2022-11-14T03:51:15.796Z,6.13
2022-11-14T03:53:44.155Z,6.13
2022-11-14T03:56:12.160Z,6.15
2022-11-14T03:58:41.444Z,6.15
2022-11-14T04:01:09.534Z,6.13
2022-11-14T04:03:37.653Z,6.07
2022-11-14T04:06:05.674Z,6.07
2022-11-14T04:08:33.816Z,6.07
2022-11-14T04:11:01.854Z,6.02
2022-11-14T04:13:29.665Z,6.02
2022-11-14T04:15:59.978Z,6.03
2022-11-14T04:18:28.288Z,6.01
2022-11-14T04:20:56.649Z,5.98
2022-11-14T04:23:24.679Z,6.00
2022-11-14T04:25:53.538Z,5.97
2022-11-14T04:28:21.313Z,6.00
2022-11-14T04:30:50.547Z,5.99
2022-11-14T04:33:20.371Z,5.99
2022-11-14T04:35:49.395Z,6.01
2022-11-14T04:38:17.417Z,5.99
2022-11-14T04:40:50.126Z,6.03
2022-11-14T04:43:18.594Z,6.03
2022-11-14T04:45:48.352Z,6.07
2022-11-14T04:48:16.431Z,6.07
2022-11-14T04:50:54.734Z,6.06
2022-11-14T04:53:22.617Z,6.06
2022-11-14T04:55:50.464Z,6.03
2022-11-14T04:58:18.406Z,6.02
2022-11-14T05:00:46.661Z,6.05
2022-11-14T05:03:14.544Z,6.04
2022-11-14T05:05:43.650Z,6.05
2022-11-14T05:08:14.200Z,6.04
2022-11-14T05:10:44.114Z,6.08
2022-11-14T05:13:23.139Z,6.03
2022-11-14T05:15:51.039Z,6.07
2022-11-14T05:18:18.976Z,6.00
2022-11-14T05:20:46.888Z,6.01
2022-11-14T05:23:21.181Z,6.00
2022-11-14T05:25:49.253Z,5.98
2022-11-14T05:28:17.226Z,5.98
2022-11-14T05:30:46.807Z,6.00
2022-11-14T05:33:15.986Z,6.00
2022-11-14T05:35:47.991Z,5.91
2022-11-14T05:38:19.623Z,5.94
2022-11-14T05:40:47.417Z,5.92
2022-11-14T05:43:16.938Z,5.88
2022-11-14T05:45:50.554Z,5.89
2022-11-14T05:48:20.754Z,5.89
2022-11-14T05:50:48.554Z,5.91
2022-11-14T05:53:18.825Z,5.88
2022-11-14T05:55:46.681Z,5.90
2022-11-14T05:58:14.646Z,5.88
2022-11-14T06:00:50.748Z,5.88
2022-11-14T06:03:23.229Z,5.84
2022-11-14T06:05:52.217Z,5.82
2022-11-14T06:08:21.370Z,5.81
2022-11-14T06:10:49.383Z,5.84
2022-11-14T06:13:17.749Z,5.80
2022-11-14T06:15:46.638Z,5.81
2022-11-14T06:18:15.659Z,5.86
2022-11-14T06:20:43.875Z,5.87
2022-11-14T06:23:13.802Z,5.90
2022-11-14T06:25:43.176Z,5.84
2022-11-14T06:28:11.198Z,5.75
2022-11-14T06:30:41.349Z,5.84
2022-11-14T06:33:09.374Z,5.79
2022-11-14T06:35:38.188Z,5.75
2022-11-14T06:38:06.030Z,5.59
2022-11-14T06:40:34.296Z,5.55
2022-11-14T06:43:03.507Z,5.54
2022-11-14T06:45:31.383Z,5.54
2022-11-14T06:48:00.899Z,5.46
2022-11-14T06:50:28.959Z,5.48
2022-11-14T06:53:00.744Z,5.42
2022-11-14T06:55:28.746Z,5.51
2022-11-14T06:57:57.150Z,5.52
2022-11-14T07:00:28.192Z,5.49
2022-11-14T07:02:56.077Z,5.41
2022-11-14T07:05:24.125Z,5.36
2022-11-14T07:07:51.944Z,5.42
2022-11-14T07:10:21.338Z,5.40
2022-11-14T07:12:49.567Z,5.44
2022-11-14T07:15:18.155Z,5.44
2022-11-14T07:17:50.331Z,5.43
2022-11-14T07:20:18.653Z,5.32
2022-11-14T07:22:47.205Z,5.45
2022-11-14T07:25:15.373Z,5.45
2022-11-14T07:27:43.471Z,5.34
2022-11-14T07:30:12.504Z,5.34
2022-11-14T07:32:40.587Z,5.39
2022-11-14T07:35:10.505Z,5.38
2022-11-14T07:37:38.636Z,5.33
2022-11-14T07:40:07.623Z,5.33
2022-11-14T07:42:35.590Z,5.30
2022-11-14T07:45:07.804Z,5.37
2022-11-14T07:47:35.872Z,5.36
2022-11-14T07:50:06.915Z,5.34
2022-11-14T07:52:36.250Z,5.33
2022-11-14T07:55:05.292Z,5.37
2022-11-14T07:57:40.367Z,5.45
2022-11-14T08:00:15.268Z,5.39
2022-11-14T08:02:43.188Z,5.46
2022-11-14T08:05:14.254Z,5.53
2022-11-14T08:07:43.497Z,5.51
2022-11-14T08:10:14.275Z,5.61
2022-11-14T08:12:42.798Z,5.71
2022-11-14T08:15:15.703Z,5.62
2022-11-14T08:17:43.662Z,5.79
2022-11-14T08:20:12.691Z,5.95
2022-11-14T08:22:47.884Z,5.95
2022-11-14T08:25:20.823Z,5.97
2022-11-14T08:27:48.787Z,5.97
2022-11-14T08:30:17.510Z,5.97
2022-11-14T08:32:45.587Z,6.02
2022-11-14T08:35:13.517Z,5.96
2022-11-14T08:37:42.830Z,5.96
2022-11-14T08:40:14.875Z,6.01
2022-11-14T08:42:44.384Z,6.11
2022-11-14T08:45:12.304Z,6.25
2022-11-14T08:47:40.187Z,6.29
2022-11-14T08:50:08.813Z,6.17
2022-11-14T08:52:36.649Z,6.25
2022-11-14T08:55:06.651Z,6.27
2022-11-14T08:57:34.658Z,6.34
2022-11-14T09:00:02.718Z,6.51
2022-11-14T09:02:32.208Z,6.63
2022-11-14T09:05:00.185Z,6.66
2022-11-14T09:07:28.952Z,6.62
2022-11-14T09:09:57.001Z,6.79
2022-11-14T09:12:26.433Z,6.76
2022-11-14T09:14:55.311Z,6.81
2022-11-14T09:17:23.344Z,6.96
2022-11-14T09:23:06.087Z,6.73
2022-11-14T09:25:35.025Z,7.13
2022-11-14T09:28:09.019Z,7.22
2022-11-14T09:30:38.184Z,7.16
2022-11-14T09:33:11.397Z,7.30
2022-11-14T09:35:39.997Z,7.38
2022-11-14T09:38:10.766Z,7.75
2022-11-14T09:40:53.683Z,7.41
2022-11-14T09:43:43.142Z,7.16
2022-11-14T09:46:21.183Z,7.07
2022-11-14T09:48:52.986Z,6.91
2022-11-14T09:51:29.027Z,6.66
2022-11-14T09:54:07.971Z,6.69
2022-11-14T09:56:35.958Z,6.95
2022-11-14T09:59:09.873Z,7.25
2022-11-14T10:01:47.626Z,7.40
2022-11-14T10:04:25.685Z,7.50
2022-11-14T10:07:03.113Z,7.52
2022-11-14T10:09:44.846Z,7.40
2022-11-14T10:12:19.473Z,7.27
2022-11-14T10:15:00.004Z,7.38
2022-11-14T10:18:04.300Z,7.53
2022-11-14T10:20:40.904Z,7.58
2022-11-14T10:23:29.373Z,7.72
2022-11-14T10:26:08.079Z,8.12
2022-11-14T10:28:57.828Z,8.68
2022-11-14T10:31:45.166Z,8.89
2022-11-14T10:34:26.508Z,8.93
2022-11-14T10:37:07.359Z,8.91
2022-11-14T10:39:42.728Z,8.65
2022-11-14T10:42:20.704Z,8.28
2022-11-14T10:45:03.690Z,7.98
2022-11-14T10:47:41.949Z,7.87
2022-11-14T10:50:19.536Z,7.84
2022-11-14T10:52:49.584Z,7.82
2022-11-14T10:55:24.836Z,8.18
2022-11-14T10:58:11.245Z,8.09
2022-11-14T11:00:39.201Z,7.93
2022-11-14T11:03:08.921Z,8.00
2022-11-14T11:05:48.813Z,7.78
2022-11-14T11:08:43.639Z,7.86
2022-11-14T11:11:31.767Z,8.11
2022-11-14T11:14:02.436Z,8.30
2022-11-14T11:16:31.038Z,8.43
2022-11-14T11:19:16.027Z,8.82
2022-11-14T11:21:51.476Z,9.09
2022-11-14T11:24:43.275Z,9.52
2022-11-14T11:27:15.854Z,9.30
2022-11-14T11:29:43.971Z,9.49
2022-11-14T11:32:11.900Z,9.57
2022-11-14T11:34:41.649Z,9.34
2022-11-14T11:37:16.959Z,9.20
2022-11-14T11:39:56.333Z,9.20
2022-11-14T11:43:12.286Z,9.63
2022-11-14T11:45:21.903Z,9.51
2022-11-14T11:47:57.413Z,9.11
2022-11-14T11:50:27.327Z,9.81
2022-11-14T11:53:08.342Z,10.15
2022-11-14T11:55:43.788Z,10.38
2022-11-14T11:58:20.210Z,10.70
2022-11-14T12:00:48.590Z,10.85
2022-11-14T12:03:20.750Z,10.70
2022-11-14T12:06:00.831Z,11.55
2022-11-14T12:08:37.079Z,12.22
2022-11-14T12:11:11.209Z,12.50
2022-11-14T12:14:17.280Z,12.00
2022-11-14T12:17:08.450Z,12.43
2022-11-14T12:19:52.737Z,13.35
2022-11-14T12:22:51.333Z,13.96
2022-11-14T12:25:44.024Z,13.17
2022-11-14T12:28:29.156Z,12.65
2022-11-14T12:31:02.318Z,11.97
2022-11-14T12:33:34.233Z,12.21
2022-11-14T12:36:10.003Z,12.44
2022-11-14T12:38:46.948Z,12.69
2022-11-14T12:41:24.474Z,12.27
2022-11-14T12:43:52.419Z,12.55
2022-11-14T12:46:20.365Z,12.33
2022-11-14T12:48:48.826Z,11.77
2022-11-14T12:51:51.521Z,12.09
2022-11-14T12:54:45.595Z,10.53
2022-11-14T12:57:41.467Z,10.60
2022-11-14T13:00:11.260Z,10.75
2022-11-14T13:02:58.181Z,11.23
2022-11-14T13:05:48.664Z,11.41
2022-11-14T13:08:48.301Z,11.59
2022-11-14T13:11:55.470Z,11.23
2022-11-14T13:14:41.250Z,11.17
2022-11-14T13:17:46.505Z,11.26
2022-11-14T13:20:48.762Z,11.08
2022-11-14T13:23:55.670Z,11.19
2022-11-14T13:26:45.939Z,11.45
2022-11-14T13:29:41.956Z,11.35
2022-11-14T13:32:59.603Z,11.41
2022-11-14T13:35:53.572Z,11.59
2022-11-14T13:38:59.276Z,11.88
2022-11-14T13:42:05.961Z,11.78
2022-11-14T13:45:09.513Z,11.67
2022-11-14T13:48:14.463Z,12.42
2022-11-14T13:51:36.755Z,11.87
2022-11-14T13:54:03.907Z,11.32
2022-11-14T13:56:44.018Z,11.44
2022-11-14T13:59:53.417Z,11.78
2022-11-14T14:02:49.166Z,12.06
2022-11-14T14:05:30.115Z,11.90
2022-11-14T14:08:14.513Z,11.78
2022-11-14T14:11:02.711Z,12.80
2022-11-14T14:13:45.267Z,12.10
2022-11-14T14:16:24.226Z,11.92
2022-11-14T14:19:07.192Z,11.95
2022-11-14T14:21:44.897Z,11.64
2022-11-14T14:24:27.519Z,11.22
2022-11-14T14:27:04.278Z,11.34
2022-11-14T14:29:44.127Z,11.35
2022-11-14T14:32:15.578Z,11.31
2022-11-14T14:34:43.548Z,11.58
2022-11-14T14:37:21.062Z,11.58
2022-11-14T14:40:01.234Z,11.46
2022-11-14T14:42:37.433Z,10.58
2022-11-14T14:45:15.878Z,10.26
2022-11-14T14:47:48.855Z,9.41
2022-11-14T14:50:22.364Z,9.15
2022-11-14T14:52:58.080Z,8.85
2022-11-14T14:55:29.903Z,8.71
2022-11-14T14:58:20.994Z,8.57
2022-11-14T15:01:02.644Z,8.42
2022-11-14T15:03:37.004Z,8.37
2022-11-14T15:06:08.119Z,8.24
2022-11-14T15:08:39.570Z,8.01
2022-11-14T15:11:09.314Z,8.00
2022-11-14T15:13:38.761Z,8.00
2022-11-14T15:16:09.265Z,8.12
2022-11-14T15:18:42.132Z,8.12
2022-11-14T15:21:15.433Z,8.06
2022-11-14T15:23:46.062Z,8.10
2022-11-14T15:26:22.166Z,8.18
2022-11-14T15:28:53.664Z,8.21
2022-11-14T15:31:24.512Z,8.21
2022-11-14T15:34:04.737Z,8.26
2022-11-14T15:36:36.931Z,8.35
2022-11-14T15:39:09.670Z,8.49
2022-11-14T15:41:39.288Z,8.56
2022-11-14T15:44:30.216Z,8.60
2022-11-14T15:47:00.220Z,8.54
2022-11-14T15:49:28.699Z,8.59
2022-11-14T15:52:00.698Z,8.52
2022-11-14T15:54:31.642Z,8.48
2022-11-14T15:57:14.978Z,8.52
2022-11-14T15:59:46.766Z,8.54
2022-11-14T16:02:19.183Z,8.51
2022-11-14T16:04:48.197Z,8.49
2022-11-14T16:07:20.573Z,8.51
2022-11-14T16:09:48.714Z,8.44
2022-11-14T16:12:26.236Z,8.44
2022-11-14T16:14:54.454Z,8.42
2022-11-14T16:17:24.713Z,8.44
2022-11-14T16:19:52.952Z,8.44
2022-11-14T16:22:22.759Z,8.42
2022-11-14T16:24:53.783Z,8.39
2022-11-14T16:27:24.658Z,8.42
2022-11-14T16:29:52.923Z,8.41
2022-11-14T16:32:20.942Z,8.37
2022-11-14T16:34:48.922Z,8.37
2022-11-14T16:37:17.650Z,8.36
2022-11-14T16:39:46.540Z,8.41
2022-11-14T16:42:14.573Z,8.33
2022-11-14T16:44:47.892Z,8.25
2022-11-14T16:47:19.712Z,8.22
2022-11-14T16:49:48.902Z,8.16
2022-11-14T16:52:17.363Z,8.19
2022-11-14T16:54:46.701Z,8.16
2022-11-14T16:57:14.665Z,8.24
2022-11-14T16:59:44.197Z,8.22
2022-11-14T17:02:15.894Z,8.27
2022-11-14T17:04:46.269Z,8.21
2022-11-14T17:07:17.648Z,8.16
2022-11-14T17:09:48.272Z,8.14
2022-11-14T17:12:16.444Z,8.19
2022-11-14T17:14:45.896Z,8.21
2022-11-14T17:17:15.447Z,8.14
2022-11-14T17:19:46.306Z,8.16
2022-11-14T17:22:14.619Z,8.11
2022-11-14T17:24:44.413Z,7.97
2022-11-14T17:27:19.206Z,7.80
2022-11-14T17:29:55.342Z,7.69
2022-11-14T17:32:26.529Z,7.79
2022-11-14T17:35:01.509Z,7.79
2022-11-14T17:37:30.155Z,7.60
2022-11-14T17:40:03.243Z,7.41
2022-11-14T17:42:40.013Z,7.25
2022-11-14T17:45:19.281Z,7.10
2022-11-14T17:47:51.514Z,7.06
2022-11-14T17:50:21.993Z,7.08
2022-11-14T17:52:52.960Z,7.06
2022-11-14T17:55:20.814Z,7.18
2022-11-14T17:57:54.312Z,7.33
2022-11-14T18:00:32.657Z,7.37
2022-11-14T18:03:00.538Z,7.45
2022-11-14T18:05:30.213Z,7.46
2022-11-14T18:08:04.396Z,7.46
2022-11-14T18:10:32.687Z,7.42
2022-11-14T18:13:29.588Z,7.48
2022-11-14T18:16:06.663Z,7.47
2022-11-14T18:18:37.826Z,7.42
2022-11-14T18:21:15.638Z,7.43
2022-11-14T18:23:45.805Z,7.42
2022-11-14T18:26:21.054Z,7.44
2022-11-14T18:28:49.236Z,7.42
2022-11-14T18:31:21.678Z,7.40
2022-11-14T18:33:56.026Z,7.37
2022-11-14T18:36:24.956Z,7.36
2022-11-14T18:38:54.849Z,7.31
2022-11-14T18:41:26.853Z,7.32
2022-11-14T18:43:56.527Z,7.33
2022-11-14T18:46:34.401Z,7.32
2022-11-14T18:49:06.901Z,7.28
2022-11-14T18:51:42.232Z,7.23
2022-11-14T18:54:13.149Z,7.28
2022-11-14T18:56:49.343Z,7.28
2022-11-14T18:59:20.886Z,7.22
2022-11-14T19:01:55.073Z,7.26
2022-11-14T19:04:31.051Z,7.30
2022-11-14T19:06:58.958Z,7.32
2022-11-14T19:09:32.880Z,7.30
2022-11-14T19:12:20.787Z,7.31
2022-11-14T19:14:56.444Z,7.27
2022-11-14T19:20:34.676Z,7.14
2022-11-14T19:23:08.117Z,7.26
2022-11-14T19:25:43.868Z,7.18
2022-11-14T19:28:14.334Z,7.23
2022-11-14T19:31:11.150Z,7.25
2022-11-14T19:33:59.491Z,7.02
2022-11-14T19:37:04.253Z,7.28
2022-11-14T19:39:35.578Z,7.20
2022-11-14T19:42:06.702Z,7.26
2022-11-14T19:45:03.597Z,7.23
2022-11-14T19:51:56.714Z,7.28
2022-11-14T19:54:27.998Z,7.29
2022-11-14T19:57:05.882Z,7.32
2022-11-14T19:59:34.029Z,7.43
2022-11-14T20:02:02.160Z,7.41
2022-11-14T20:04:48.171Z,7.39
2022-11-14T20:07:22.433Z,7.43
2022-11-14T20:09:52.896Z,7.43
2022-11-14T20:12:31.239Z,7.45
2022-11-14T20:15:06.633Z,7.43
2022-11-14T20:17:44.276Z,7.26
2022-11-14T20:20:17.585Z,7.36
2022-11-14T20:22:51.835Z,7.27
2022-11-14T20:25:28.729Z,7.40
2022-11-14T20:28:09.548Z,7.27
2022-11-14T20:30:50.654Z,7.34
2022-11-14T20:33:21.983Z,7.45
2022-11-14T20:35:53.317Z,7.47
2022-11-14T20:38:24.035Z,7.49
2022-11-14T20:40:59.346Z,7.51
2022-11-14T20:43:56.961Z,7.53
2022-11-14T20:46:25.737Z,7.42
2022-11-14T20:49:20.428Z,7.46
2022-11-14T20:51:56.088Z,7.40
2022-11-14T20:54:39.351Z,7.43
2022-11-14T20:57:17.716Z,7.56
2022-11-14T20:59:46.664Z,7.35
2022-11-14T21:02:53.897Z,7.53
2022-11-14T21:05:28.143Z,7.47
2022-11-14T21:07:59.211Z,7.52
2022-11-14T21:10:48.949Z,7.48
2022-11-14T21:13:36.329Z,7.51
2022-11-14T21:16:16.268Z,7.55
2022-11-14T21:18:50.664Z,7.53
2022-11-14T21:21:23.841Z,7.51
2022-11-14T21:23:54.322Z,7.54
2022-11-14T21:26:35.713Z,7.42
2022-11-14T21:29:07.187Z,7.40
2022-11-14T21:31:40.014Z,7.60
2022-11-14T21:34:12.330Z,7.60
2022-11-14T21:36:55.985Z,7.59
2022-11-14T21:39:33.037Z,7.59
2022-11-14T21:42:22.148Z,7.48
2022-11-14T21:44:54.423Z,7.48
2022-11-14T21:47:34.763Z,7.60
2022-11-14T21:50:03.352Z,7.60
2022-11-14T21:52:33.156Z,7.63
2022-11-14T21:55:01.996Z,7.63
2022-11-14T21:57:31.540Z,7.66
2022-11-14T21:59:59.414Z,7.64
2022-11-14T22:02:45.303Z,7.61
2022-11-14T22:05:13.323Z,7.60
2022-11-14T22:07:41.984Z,7.65
2022-11-14T22:10:10.646Z,7.68
2022-11-14T22:12:41.516Z,7.68
2022-11-14T22:15:11.431Z,7.68
2022-11-14T22:17:40.714Z,7.73
2022-11-14T22:20:10.938Z,7.71
2022-11-14T22:22:38.872Z,7.75
2022-11-14T22:25:21.977Z,7.73
2022-11-14T22:28:00.867Z,7.76
2022-11-14T22:30:40.585Z,7.75
2022-11-14T22:33:16.507Z,7.72
2022-11-14T22:36:18.844Z,7.76
2022-11-14T22:38:47.324Z,7.75
2022-11-14T22:41:18.064Z,7.70
2022-11-14T22:43:48.498Z,7.73
2022-11-14T22:46:22.424Z,7.76
2022-11-14T22:48:51.163Z,7.78
2022-11-14T22:51:21.056Z,7.78
2022-11-14T22:53:50.197Z,7.85
2022-11-14T22:56:20.648Z,7.81
2022-11-14T22:58:50.128Z,7.89
2022-11-14T23:01:21.785Z,7.81
2022-11-14T23:03:54.978Z,7.83
2022-11-14T23:06:25.277Z,7.80
2022-11-14T23:08:54.530Z,7.81
2022-11-14T23:11:25.585Z,7.74
2022-11-14T23:13:56.888Z,7.72
2022-11-14T23:19:12.899Z,7.77
2022-11-14T23:21:40.974Z,7.75
2022-11-14T23:24:14.889Z,7.73
2022-11-14T23:26:42.901Z,7.71
2022-11-14T23:29:16.826Z,7.68
2022-11-14T23:31:44.632Z,7.70
2022-11-14T23:34:12.682Z,7.65
2022-11-14T23:36:40.838Z,7.55
2022-11-14T23:39:08.612Z,7.37
2022-11-14T23:41:36.563Z,7.13
2022-11-14T23:44:04.561Z,7.00
2022-11-14T23:46:33.892Z,6.93
2022-11-14T23:49:02.227Z,6.68
2022-11-14T23:51:30.452Z,6.62
2022-11-14T23:54:00.567Z,6.48
2022-11-14T23:56:28.816Z,6.21
2022-11-14T23:58:56.743Z,6.24
